sensor_id;sensor_type;location;lat;lon;timestamp;P1;durP1;ratioP1;P2;durP2;ratioP2
26034;SDS011;13809;48.632;11.576;2023-02-13T00:05:04;15.00;;;12.60;;
26034;SDS011;13809;48.632;11.576;2023-02-13T00:10:08;14.03;;;12.53;;
26034;SDS011;13809;48.632;11.576;2023-02-13T00:15:12;15.17;;;13.57;;
26034;SDS011;13809;48.632;11.576;2023-02-13T00:20:16;14.73;;;12.60;;
26034;SDS011;13809;48.632;11.576;2023-02-13T00:25:20;16.47;;;14.37;;
26034;SDS011;13809;48.632;11.576;2023-02-13T00:30:23;16.00;;;14.30;;
26034;SDS011;13809;48.632;11.576;2023-02-13T00:35:27;15.07;;;13.17;;
26034;SDS011;13809;48.632;11.576;2023-02-13T00:40:30;16.93;;;14.07;;
26034;SDS011;13809;48.632;11.576;2023-02-13T00:45:33;15.57;;;13.87;;
26034;SDS011;13809;48.632;11.576;2023-02-13T00:50:38;17.97;;;14.13;;
26034;SDS011;13809;48.632;11.576;2023-02-13T00:55:41;17.47;;;14.63;;
26034;SDS011;13809;48.632;11.576;2023-02-13T01:00:44;19.03;;;14.63;;
26034;SDS011;13809;48.632;11.576;2023-02-13T01:05:50;15.30;;;13.70;;
26034;SDS011;13809;48.632;11.576;2023-02-13T01:10:54;15.37;;;12.57;;
26034;SDS011;13809;48.632;11.576;2023-02-13T01:15:58;14.73;;;13.23;;
26034;SDS011;13809;48.632;11.576;2023-02-13T01:21:03;11.97;;;10.60;;
26034;SDS011;13809;48.632;11.576;2023-02-13T01:26:09;13.60;;;12.27;;
26034;SDS011;13809;48.632;11.576;2023-02-13T01:31:17;14.93;;;13.33;;
26034;SDS011;13809;48.632;11.576;2023-02-13T01:36:22;14.30;;;12.80;;
26034;SDS011;13809;48.632;11.576;2023-02-13T01:41:26;14.40;;;12.90;;
26034;SDS011;13809;48.632;11.576;2023-02-13T01:46:30;19.27;;;11.77;;
26034;SDS011;13809;48.632;11.576;2023-02-13T01:51:38;11.13;;;10.13;;
26034;SDS011;13809;48.632;11.576;2023-02-13T01:56:43;12.77;;;11.47;;
26034;SDS011;13809;48.632;11.576;2023-02-13T02:01:49;12.60;;;11.37;;
26034;SDS011;13809;48.632;11.576;2023-02-13T02:06:54;13.23;;;11.93;;
26034;SDS011;13809;48.632;11.576;2023-02-13T02:12:00;12.63;;;11.43;;
26034;SDS011;13809;48.632;11.576;2023-02-13T02:17:06;19.07;;;12.03;;
26034;SDS011;13809;48.632;11.576;2023-02-13T02:22:23;13.33;;;12.03;;
26034;SDS011;13809;48.632;11.576;2023-02-13T02:27:55;13.90;;;11.93;;
26034;SDS011;13809;48.632;11.576;2023-02-13T02:33:17;10.33;;;9.33;;
26034;SDS011;13809;48.632;11.576;2023-02-13T02:38:36;12.63;;;11.43;;
26034;SDS011;13809;48.632;11.576;2023-02-13T02:43:50;40.40;;;11.37;;
26034;SDS011;13809;48.632;11.576;2023-02-13T02:49:03;14.33;;;11.53;;
26034;SDS011;13809;48.632;11.576;2023-02-13T02:54:27;10.50;;;9.50;;
26034;SDS011;13809;48.632;11.576;2023-02-13T03:00:10;10.23;;;9.23;;
26034;SDS011;13809;48.632;11.576;2023-02-13T03:05:33;10.03;;;9.07;;
26034;SDS011;13809;48.632;11.576;2023-02-13T03:10:57;10.60;;;9.67;;
26034;SDS011;13809;48.632;11.576;2023-02-13T03:16:18;9.43;;;8.53;;
26034;SDS011;13809;48.632;11.576;2023-02-13T03:21:46;24.33;;;10.63;;
26034;SDS011;13809;48.632;11.576;2023-02-13T03:27:11;48.60;;;11.03;;
26034;SDS011;13809;48.632;11.576;2023-02-13T03:32:42;40.53;;;10.60;;
26034;SDS011;13809;48.632;11.576;2023-02-13T03:37:56;11.93;;;10.73;;
26034;SDS011;13809;48.632;11.576;2023-02-13T03:43:09;27.30;;;10.60;;
26034;SDS011;13809;48.632;11.576;2023-02-13T03:48:15;10.87;;;9.67;;
26034;SDS011;13809;48.632;11.576;2023-02-13T03:53:41;11.73;;;10.53;;
26034;SDS011;13809;48.632;11.576;2023-02-13T03:58:49;26.80;;;10.43;;
26034;SDS011;13809;48.632;11.576;2023-02-13T04:04:14;11.43;;;10.33;;
26034;SDS011;13809;48.632;11.576;2023-02-13T04:09:25;10.80;;;9.80;;
26034;SDS011;13809;48.632;11.576;2023-02-13T04:14:32;12.40;;;9.43;;
26034;SDS011;13809;48.632;11.576;2023-02-13T04:19:39;11.17;;;10.07;;
26034;SDS011;13809;48.632;11.576;2023-02-13T04:24:44;10.10;;;9.10;;
26034;SDS011;13809;48.632;11.576;2023-02-13T04:29:47;11.93;;;10.53;;
26034;SDS011;13809;48.632;11.576;2023-02-13T04:34:50;12.40;;;9.87;;
26034;SDS011;13809;48.632;11.576;2023-02-13T04:39:55;10.33;;;9.33;;
26034;SDS011;13809;48.632;11.576;2023-02-13T04:44:58;14.10;;;10.20;;
26034;SDS011;13809;48.632;11.576;2023-02-13T04:50:01;10.00;;;9.10;;
26034;SDS011;13809;48.632;11.576;2023-02-13T04:55:06;11.27;;;10.23;;
26034;SDS011;13809;48.632;11.576;2023-02-13T05:00:10;10.47;;;9.47;;
26034;SDS011;13809;48.632;11.576;2023-02-13T05:05:14;29.17;;;9.60;;
26034;SDS011;13809;48.632;11.576;2023-02-13T05:10:18;8.67;;;7.90;;
26034;SDS011;13809;48.632;11.576;2023-02-13T05:15:22;20.73;;;9.53;;
26034;SDS011;13809;48.632;11.576;2023-02-13T05:20:25;10.33;;;9.33;;
26034;SDS011;13809;48.632;11.576;2023-02-13T05:25:30;10.67;;;9.67;;
26034;SDS011;13809;48.632;11.576;2023-02-13T05:30:33;10.53;;;9.53;;
26034;SDS011;13809;48.632;11.576;2023-02-13T05:35:37;8.87;;;8.07;;
26034;SDS011;13809;48.632;11.576;2023-02-13T05:40:41;26.37;;;10.07;;
26034;SDS011;13809;48.632;11.576;2023-02-13T05:45:44;12.20;;;10.93;;
26034;SDS011;13809;48.632;11.576;2023-02-13T05:50:48;13.43;;;12.10;;
26034;SDS011;13809;48.632;11.576;2023-02-13T05:55:52;15.03;;;12.00;;
26034;SDS011;13809;48.632;11.576;2023-02-13T06:00:56;10.80;;;9.70;;
26034;SDS011;13809;48.632;11.576;2023-02-13T06:06:00;11.33;;;10.17;;
26034;SDS011;13809;48.632;11.576;2023-02-13T06:11:04;14.00;;;11.27;;
26034;SDS011;13809;48.632;11.576;2023-02-13T06:16:08;11.67;;;10.47;;
26034;SDS011;13809;48.632;11.576;2023-02-13T06:21:12;22.83;;;10.40;;
26034;SDS011;13809;48.632;11.576;2023-02-13T06:26:16;19.00;;;9.77;;
26034;SDS011;13809;48.632;11.576;2023-02-13T06:31:20;9.67;;;8.77;;
26034;SDS011;13809;48.632;11.576;2023-02-13T06:36:23;10.60;;;8.87;;
26034;SDS011;13809;48.632;11.576;2023-02-13T06:41:28;10.77;;;9.67;;
26034;SDS011;13809;48.632;11.576;2023-02-13T06:46:31;10.83;;;9.73;;
26034;SDS011;13809;48.632;11.576;2023-02-13T06:51:34;11.53;;;10.33;;
26034;SDS011;13809;48.632;11.576;2023-02-13T06:56:39;15.67;;;9.87;;
26034;SDS011;13809;48.632;11.576;2023-02-13T07:01:42;12.07;;;9.77;;
26034;SDS011;13809;48.632;11.576;2023-02-13T07:06:45;10.47;;;9.43;;
26034;SDS011;13809;48.632;11.576;2023-02-13T07:11:50;10.43;;;9.43;;
26034;SDS011;13809;48.632;11.576;2023-02-13T07:16:53;10.43;;;9.50;;
26034;SDS011;13809;48.632;11.576;2023-02-13T07:21:56;10.50;;;9.50;;
26034;SDS011;13809;48.632;11.576;2023-02-13T07:27:01;12.17;;;8.87;;
26034;SDS011;13809;48.632;11.576;2023-02-13T07:32:04;9.73;;;8.73;;
26034;SDS011;13809;48.632;11.576;2023-02-13T07:37:09;9.80;;;8.80;;
26034;SDS011;13809;48.632;11.576;2023-02-13T07:42:14;10.57;;;9.50;;
26034;SDS011;13809;48.632;11.576;2023-02-13T07:47:17;10.17;;;9.17;;
26034;SDS011;13809;48.632;11.576;2023-02-13T07:52:20;11.27;;;10.17;;
26034;SDS011;13809;48.632;11.576;2023-02-13T07:57:25;9.40;;;8.50;;
26034;SDS011;13809;48.632;11.576;2023-02-13T08:02:28;36.73;;;9.93;;
26034;SDS011;13809;48.632;11.576;2023-02-13T08:07:31;34.43;;;8.97;;
26034;SDS011;13809;48.632;11.576;2023-02-13T08:12:36;10.07;;;9.07;;
26034;SDS011;13809;48.632;11.576;2023-02-13T08:17:39;13.37;;;9.50;;
26034;SDS011;13809;48.632;11.576;2023-02-13T08:22:42;11.27;;;9.13;;
26034;SDS011;13809;48.632;11.576;2023-02-13T08:27:47;9.77;;;8.77;;
26034;SDS011;13809;48.632;11.576;2023-02-13T08:32:50;25.30;;;10.57;;
26034;SDS011;13809;48.632;11.576;2023-02-13T08:37:54;9.10;;;8.20;;
26034;SDS011;13809;48.632;11.576;2023-02-13T08:43:00;9.57;;;8.67;;
26034;SDS011;13809;48.632;11.576;2023-02-13T08:48:03;8.70;;;7.87;;
26034;SDS011;13809;48.632;11.576;2023-02-13T08:53:07;10.80;;;9.73;;
26034;SDS011;13809;48.632;11.576;2023-02-13T08:58:12;23.87;;;10.83;;
26034;SDS011;13809;48.632;11.576;2023-02-13T09:03:15;16.80;;;11.60;;
26034;SDS011;13809;48.632;11.576;2023-02-13T09:08:18;12.03;;;10.63;;
26034;SDS011;13809;48.632;11.576;2023-02-13T09:13:23;13.50;;;9.97;;
26034;SDS011;13809;48.632;11.576;2023-02-13T09:18:26;14.33;;;11.13;;
26034;SDS011;13809;48.632;11.576;2023-02-13T09:23:30;13.17;;;9.83;;
26034;SDS011;13809;48.632;11.576;2023-02-13T09:28:35;22.23;;;10.20;;
26034;SDS011;13809;48.632;11.576;2023-02-13T09:33:38;14.13;;;10.40;;
26034;SDS011;13809;48.632;11.576;2023-02-13T09:38:42;11.37;;;10.27;;
26034;SDS011;13809;48.632;11.576;2023-02-13T09:43:47;18.27;;;11.13;;
26034;SDS011;13809;48.632;11.576;2023-02-13T09:48:54;11.40;;;10.20;;
26034;SDS011;13809;48.632;11.576;2023-02-13T09:54:01;12.30;;;10.77;;
26034;SDS011;13809;48.632;11.576;2023-02-13T09:59:11;12.90;;;11.67;;
26034;SDS011;13809;48.632;11.576;2023-02-13T10:04:28;10.67;;;9.57;;
26034;SDS011;13809;48.632;11.576;2023-02-13T10:09:38;12.43;;;11.23;;
26034;SDS011;13809;48.632;11.576;2023-02-13T10:14:53;11.90;;;10.70;;
26034;SDS011;13809;48.632;11.576;2023-02-13T10:20:06;12.23;;;11.03;;
26034;SDS011;13809;48.632;11.576;2023-02-13T10:25:20;11.10;;;10.03;;
26034;SDS011;13809;48.632;11.576;2023-02-13T10:30:29;12.23;;;11.03;;
26034;SDS011;13809;48.632;11.576;2023-02-13T10:35:34;10.23;;;9.27;;
26034;SDS011;13809;48.632;11.576;2023-02-13T10:40:39;10.83;;;9.83;;
26034;SDS011;13809;48.632;11.576;2023-02-13T10:45:53;10.93;;;9.77;;
26034;SDS011;13809;48.632;11.576;2023-02-13T10:51:04;11.93;;;10.83;;
26034;SDS011;13809;48.632;11.576;2023-02-13T10:56:16;11.50;;;10.37;;
26034;SDS011;13809;48.632;11.576;2023-02-13T11:01:36;11.50;;;9.47;;
26034;SDS011;13809;48.632;11.576;2023-02-13T11:06:48;11.73;;;10.57;;
26034;SDS011;13809;48.632;11.576;2023-02-13T11:11:57;11.73;;;10.63;;
26034;SDS011;13809;48.632;11.576;2023-02-13T11:17:02;12.13;;;10.93;;
26034;SDS011;13809;48.632;11.576;2023-02-13T11:22:08;11.30;;;10.23;;
26034;SDS011;13809;48.632;11.576;2023-02-13T11:27:14;11.50;;;10.40;;
26034;SDS011;13809;48.632;11.576;2023-02-13T11:32:20;11.33;;;10.10;;
26034;SDS011;13809;48.632;11.576;2023-02-13T11:37:25;12.37;;;11.17;;
26034;SDS011;13809;48.632;11.576;2023-02-13T11:42:30;12.87;;;11.53;;
26034;SDS011;13809;48.632;11.576;2023-02-13T11:52:56;12.07;;;10.97;;
26034;SDS011;13809;48.632;11.576;2023-02-13T11:58:04;12.67;;;11.47;;
26034;SDS011;13809;48.632;11.576;2023-02-13T12:03:27;11.60;;;10.50;;
26034;SDS011;13809;48.632;11.576;2023-02-13T12:08:33;11.30;;;10.20;;
26034;SDS011;13809;48.632;11.576;2023-02-13T12:13:38;10.73;;;9.73;;
26034;SDS011;13809;48.632;11.576;2023-02-13T12:18:43;11.07;;;9.30;;
26034;SDS011;13809;48.632;11.576;2023-02-13T12:23:52;11.23;;;10.13;;
26034;SDS011;13809;48.632;11.576;2023-02-13T12:35:00;13.43;;;10.63;;
26034;SDS011;13809;48.632;11.576;2023-02-13T12:46:01;12.17;;;11.07;;
26034;SDS011;13809;48.632;11.576;2023-02-13T12:51:14;12.90;;;11.70;;
26034;SDS011;13809;48.632;11.576;2023-02-13T12:56:45;11.73;;;10.63;;
26034;SDS011;13809;48.632;11.576;2023-02-13T13:02:05;12.40;;;11.13;;
26034;SDS011;13809;48.632;11.576;2023-02-13T13:07:34;11.30;;;10.27;;
26034;SDS011;13809;48.632;11.576;2023-02-13T13:12:48;13.33;;;11.93;;
26034;SDS011;13809;48.632;11.576;2023-02-13T13:17:59;12.77;;;11.57;;
26034;SDS011;13809;48.632;11.576;2023-02-13T13:23:12;12.63;;;11.33;;
26034;SDS011;13809;48.632;11.576;2023-02-13T13:28:21;12.33;;;11.07;;
26034;SDS011;13809;48.632;11.576;2023-02-13T13:33:26;13.80;;;12.33;;
26034;SDS011;13809;48.632;11.576;2023-02-13T13:38:35;14.70;;;13.20;;
26034;SDS011;13809;48.632;11.576;2023-02-13T13:43:49;13.53;;;12.20;;
26034;SDS011;13809;48.632;11.576;2023-02-13T13:49:07;14.13;;;12.63;;
26034;SDS011;13809;48.632;11.576;2023-02-13T13:54:23;14.47;;;12.97;;
26034;SDS011;13809;48.632;11.576;2023-02-13T14:05:02;13.10;;;11.73;;
26034;SDS011;13809;48.632;11.576;2023-02-13T14:16:11;13.33;;;12.07;;
26034;SDS011;13809;48.632;11.576;2023-02-13T14:21:34;13.57;;;12.20;;
26034;SDS011;13809;48.632;11.576;2023-02-13T14:26:37;14.03;;;12.67;;
26034;SDS011;13809;48.632;11.576;2023-02-13T14:31:49;12.80;;;11.43;;
26034;SDS011;13809;48.632;11.576;2023-02-13T14:37:12;14.33;;;13.00;;
26034;SDS011;13809;48.632;11.576;2023-02-13T14:42:25;13.90;;;12.60;;
26034;SDS011;13809;48.632;11.576;2023-02-13T14:47:34;14.90;;;13.50;;
26034;SDS011;13809;48.632;11.576;2023-02-13T14:52:41;13.13;;;11.80;;
26034;SDS011;13809;48.632;11.576;2023-02-13T14:57:48;12.47;;;11.30;;
26034;SDS011;13809;48.632;11.576;2023-02-13T15:02:57;10.83;;;9.73;;
26034;SDS011;13809;48.632;11.576;2023-02-13T15:08:07;12.67;;;11.37;;
26034;SDS011;13809;48.632;11.576;2023-02-13T15:13:17;12.50;;;11.30;;
26034;SDS011;13809;48.632;11.576;2023-02-13T15:18:24;11.83;;;10.73;;
26034;SDS011;13809;48.632;11.576;2023-02-13T15:23:30;12.23;;;11.03;;
26034;SDS011;13809;48.632;11.576;2023-02-13T15:28:35;12.37;;;11.10;;
26034;SDS011;13809;48.632;11.576;2023-02-13T15:33:43;12.23;;;11.13;;
26034;SDS011;13809;48.632;11.576;2023-02-13T15:38:47;11.00;;;10.00;;
26034;SDS011;13809;48.632;11.576;2023-02-13T15:43:51;12.03;;;10.90;;
26034;SDS011;13809;48.632;11.576;2023-02-13T15:48:59;12.70;;;11.53;;
26034;SDS011;13809;48.632;11.576;2023-02-13T15:54:18;12.50;;;11.33;;
26034;SDS011;13809;48.632;11.576;2023-02-13T15:59:25;13.40;;;11.60;;
26034;SDS011;13809;48.632;11.576;2023-02-13T16:04:34;14.00;;;12.60;;
26034;SDS011;13809;48.632;11.576;2023-02-13T16:09:38;13.93;;;12.57;;
26034;SDS011;13809;48.632;11.576;2023-02-13T16:14:43;14.50;;;13.10;;
26034;SDS011;13809;48.632;11.576;2023-02-13T16:19:53;14.30;;;12.77;;
26034;SDS011;13809;48.632;11.576;2023-02-13T16:25:03;18.47;;;15.03;;
26034;SDS011;13809;48.632;11.576;2023-02-13T16:30:24;14.20;;;12.80;;
26034;SDS011;13809;48.632;11.576;2023-02-13T16:35:35;14.77;;;13.27;;
26034;SDS011;13809;48.632;11.576;2023-02-13T16:40:41;14.17;;;12.77;;
26034;SDS011;13809;48.632;11.576;2023-02-13T16:45:46;15.27;;;13.77;;
26034;SDS011;13809;48.632;11.576;2023-02-13T16:50:55;14.80;;;13.50;;
26034;SDS011;13809;48.632;11.576;2023-02-13T16:55:58;15.13;;;13.73;;
26034;SDS011;13809;48.632;11.576;2023-02-13T17:01:04;15.40;;;13.93;;
26034;SDS011;13809;48.632;11.576;2023-02-13T17:06:09;15.60;;;14.10;;
26034;SDS011;13809;48.632;11.576;2023-02-13T17:11:15;14.20;;;12.90;;
26034;SDS011;13809;48.632;11.576;2023-02-13T17:16:20;16.03;;;14.47;;
26034;SDS011;13809;48.632;11.576;2023-02-13T17:21:24;15.60;;;13.97;;
26034;SDS011;13809;48.632;11.576;2023-02-13T17:26:27;15.07;;;13.67;;
26034;SDS011;13809;48.632;11.576;2023-02-13T17:31:30;15.13;;;13.67;;
26034;SDS011;13809;48.632;11.576;2023-02-13T17:36:35;16.50;;;14.90;;
26034;SDS011;13809;48.632;11.576;2023-02-13T17:41:38;15.73;;;14.13;;
26034;SDS011;13809;48.632;11.576;2023-02-13T17:46:43;14.80;;;13.40;;
26034;SDS011;13809;48.632;11.576;2023-02-13T17:51:47;18.40;;;16.60;;
26034;SDS011;13809;48.632;11.576;2023-02-13T17:56:50;16.40;;;14.77;;
26034;SDS011;13809;48.632;11.576;2023-02-13T18:01:53;15.47;;;13.97;;
26034;SDS011;13809;48.632;11.576;2023-02-13T18:06:58;15.13;;;13.70;;
26034;SDS011;13809;48.632;11.576;2023-02-13T18:12:01;14.53;;;13.20;;
26034;SDS011;13809;48.632;11.576;2023-02-13T18:17:06;15.10;;;13.67;;
26034;SDS011;13809;48.632;11.576;2023-02-13T18:22:11;15.63;;;14.00;;
26034;SDS011;13809;48.632;11.576;2023-02-13T18:27:14;15.43;;;13.73;;
26034;SDS011;13809;48.632;11.576;2023-02-13T18:32:18;14.37;;;13.07;;
26034;SDS011;13809;48.632;11.576;2023-02-13T18:37:22;17.93;;;16.27;;
26034;SDS011;13809;48.632;11.576;2023-02-13T18:42:28;16.10;;;14.60;;
26034;SDS011;13809;48.632;11.576;2023-02-13T18:47:31;18.63;;;16.77;;
26034;SDS011;13809;48.632;11.576;2023-02-13T18:52:36;18.57;;;16.80;;
26034;SDS011;13809;48.632;11.576;2023-02-13T18:57:39;16.50;;;14.97;;
26034;SDS011;13809;48.632;11.576;2023-02-13T19:02:43;17.60;;;15.80;;
26034;SDS011;13809;48.632;11.576;2023-02-13T19:07:50;17.90;;;16.10;;
26034;SDS011;13809;48.632;11.576;2023-02-13T19:12:53;16.97;;;15.27;;
26034;SDS011;13809;48.632;11.576;2023-02-13T19:17:57;17.30;;;15.60;;
26034;SDS011;13809;48.632;11.576;2023-02-13T19:23:01;17.37;;;15.67;;
26034;SDS011;13809;48.632;11.576;2023-02-13T19:28:04;18.07;;;16.20;;
26034;SDS011;13809;48.632;11.576;2023-02-13T19:33:07;17.40;;;15.70;;
26034;SDS011;13809;48.632;11.576;2023-02-13T19:38:12;17.60;;;15.77;;
26034;SDS011;13809;48.632;11.576;2023-02-13T19:43:16;17.13;;;15.43;;
26034;SDS011;13809;48.632;11.576;2023-02-13T19:48:19;17.20;;;15.50;;
26034;SDS011;13809;48.632;11.576;2023-02-13T19:53:24;17.87;;;16.03;;
26034;SDS011;13809;48.632;11.576;2023-02-13T19:58:27;18.33;;;16.47;;
26034;SDS011;13809;48.632;11.576;2023-02-13T20:03:30;18.57;;;16.67;;
26034;SDS011;13809;48.632;11.576;2023-02-13T20:08:36;18.33;;;16.43;;
26034;SDS011;13809;48.632;11.576;2023-02-13T20:13:43;16.23;;;14.67;;
26034;SDS011;13809;48.632;11.576;2023-02-13T20:18:46;17.57;;;15.77;;
26034;SDS011;13809;48.632;11.576;2023-02-13T20:23:51;16.97;;;15.27;;
26034;SDS011;13809;48.632;11.576;2023-02-13T20:28:54;18.23;;;16.33;;
26034;SDS011;13809;48.632;11.576;2023-02-13T20:33:57;16.57;;;14.70;;
26034;SDS011;13809;48.632;11.576;2023-02-13T20:39:02;16.77;;;15.10;;
26034;SDS011;13809;48.632;11.576;2023-02-13T20:44:09;16.30;;;14.60;;
26034;SDS011;13809;48.632;11.576;2023-02-13T20:49:13;16.27;;;14.57;;
26034;SDS011;13809;48.632;11.576;2023-02-13T20:54:29;15.87;;;14.27;;
26034;SDS011;13809;48.632;11.576;2023-02-13T20:59:32;17.20;;;15.40;;
26034;SDS011;13809;48.632;11.576;2023-02-13T21:04:35;17.27;;;15.57;;
26034;SDS011;13809;48.632;11.576;2023-02-13T21:09:42;17.90;;;16.00;;
26034;SDS011;13809;48.632;11.576;2023-02-13T21:14:46;17.87;;;15.97;;
26034;SDS011;13809;48.632;11.576;2023-02-13T21:19:49;17.93;;;16.07;;
26034;SDS011;13809;48.632;11.576;2023-02-13T21:24:53;17.67;;;15.80;;
26034;SDS011;13809;48.632;11.576;2023-02-13T21:29:57;18.23;;;15.87;;
26034;SDS011;13809;48.632;11.576;2023-02-13T21:35:00;19.33;;;17.33;;
26034;SDS011;13809;48.632;11.576;2023-02-13T21:40:05;16.23;;;14.53;;
26034;SDS011;13809;48.632;11.576;2023-02-13T21:45:09;17.73;;;15.83;;
26034;SDS011;13809;48.632;11.576;2023-02-13T21:50:12;19.33;;;16.67;;
26034;SDS011;13809;48.632;11.576;2023-02-13T21:55:17;18.43;;;16.47;;
26034;SDS011;13809;48.632;11.576;2023-02-13T22:00:20;19.60;;;17.53;;
26034;SDS011;13809;48.632;11.576;2023-02-13T22:05:24;21.67;;;18.17;;
26034;SDS011;13809;48.632;11.576;2023-02-13T22:10:28;19.70;;;17.40;;
26034;SDS011;13809;48.632;11.576;2023-02-13T22:15:31;20.50;;;17.70;;
26034;SDS011;13809;48.632;11.576;2023-02-13T22:20:35;20.40;;;17.77;;
26034;SDS011;13809;48.632;11.576;2023-02-13T22:25:39;21.57;;;18.20;;
26034;SDS011;13809;48.632;11.576;2023-02-13T22:30:48;21.73;;;18.20;;
26034;SDS011;13809;48.632;11.576;2023-02-13T22:35:52;22.77;;;17.93;;
26034;SDS011;13809;48.632;11.576;2023-02-13T22:40:56;21.97;;;19.07;;
26034;SDS011;13809;48.632;11.576;2023-02-13T22:46:07;21.90;;;18.30;;
26034;SDS011;13809;48.632;11.576;2023-02-13T22:51:13;22.80;;;19.63;;
26034;SDS011;13809;48.632;11.576;2023-02-13T22:56:19;24.03;;;20.53;;
26034;SDS011;13809;48.632;11.576;2023-02-13T23:01:24;23.40;;;19.50;;
26034;SDS011;13809;48.632;11.576;2023-02-13T23:06:28;24.63;;;19.90;;
26034;SDS011;13809;48.632;11.576;2023-02-13T23:11:32;23.13;;;19.13;;
26034;SDS011;13809;48.632;11.576;2023-02-13T23:16:53;23.87;;;19.10;;
26034;SDS011;13809;48.632;11.576;2023-02-13T23:22:13;21.97;;;18.67;;
26034;SDS011;13809;48.632;11.576;2023-02-13T23:27:18;23.33;;;19.17;;
26034;SDS011;13809;48.632;11.576;2023-02-13T23:32:21;22.07;;;18.10;;
26034;SDS011;13809;48.632;11.576;2023-02-13T23:37:25;24.27;;;19.23;;
26034;SDS011;13809;48.632;11.576;2023-02-13T23:42:29;24.37;;;18.87;;
26034;SDS011;13809;48.632;11.576;2023-02-13T23:47:33;26.93;;;19.97;;
26034;SDS011;13809;48.632;11.576;2023-02-13T23:52:36;21.47;;;17.80;;
26034;SDS011;13809;48.632;11.576;2023-02-13T23:57:40;22.13;;;18.50;;
